Time;durP1;ratioP1;P1;durP2;ratioP2;P2;SDS_P1;SDS_P2;PMS_P1;PMS_P2;Temp;Humidity;BMP_temperature;BMP_pressure;BME280_temperature;BME280_humidity;BME280_pressure;Samples;Min_cycle;Max_cycle;Signal;HPM_P1;HPM_P2
2023/09/01 00:02:04;;;;;;;2.50;2.30;;;;;;;15.51;100.00;100265.94;5068810;28;20060;-55
2023/09/01 00:04:30;;;;;;;2.95;2.75;;;;;;;15.51;100.00;100273.13;5062501;28;20037;-51
2023/09/01 00:06:56;;;;;;;5.10;3.05;;;;;;;15.50;100.00;100272.34;5060367;28;20036;-52
2023/09/01 00:09:21;;;;;;;4.30;2.25;;;;;;;15.49;100.00;100270.72;5052853;28;20032;-51
2023/09/01 00:11:46;;;;;;;3.00;2.72;;;;;;;15.46;100.00;100266.63;5066631;28;20071;-54
2023/09/01 00:14:12;;;;;;;3.10;2.78;;;;;;;15.46;100.00;100263.97;5057227;28;20067;-55
2023/09/01 00:16:37;;;;;;;11.00;3.55;;;;;;;15.48;100.00;100269.88;5061517;28;20111;-53
2023/09/01 00:19:02;;;;;;;6.30;3.28;;;;;;;15.48;100.00;100277.88;5058930;28;20377;-49
2023/09/01 00:21:28;;;;;;;4.18;3.33;;;;;;;15.50;100.00;100267.00;5058464;28;20416;-53
2023/09/01 00:23:53;;;;;;;3.13;2.75;;;;;;;15.51;100.00;100273.13;5066347;28;20737;-54
2023/09/01 00:26:18;;;;;;;5.97;4.15;;;;;;;15.50;100.00;100264.31;5061838;28;20671;-54
2023/09/01 00:28:43;;;;;;;6.28;4.07;;;;;;;15.48;100.00;100261.06;5064865;28;20048;-52
2023/09/01 00:31:09;;;;;;;13.80;4.53;;;;;;;15.49;100.00;100257.34;5054612;28;20122;-48
2023/09/01 00:33:34;;;;;;;7.13;4.13;;;;;;;15.48;100.00;100253.84;5056729;28;20468;-53
2023/09/01 00:36:00;;;;;;;5.38;4.38;;;;;;;15.49;100.00;100252.00;5055816;28;20035;-52
2023/09/01 00:38:26;;;;;;;8.05;4.72;;;;;;;15.51;100.00;100249.91;5061770;28;20060;-52
2023/09/01 00:40:52;;;;;;;6.75;4.43;;;;;;;15.52;100.00;100248.06;5060870;28;20079;-50
2023/09/01 00:43:17;;;;;;;9.73;5.10;;;;;;;15.50;100.00;100245.63;5051877;28;20033;-55
2023/09/01 00:45:43;;;;;;;7.38;3.35;;;;;;;15.47;100.00;100249.56;5057485;28;20041;-54
2023/09/01 00:48:11;;;;;;;6.03;3.97;;;;;;;15.46;100.00;100249.78;5052878;28;20032;-51
2023/09/01 00:50:36;;;;;;;4.35;3.20;;;;;;;15.50;100.00;100242.94;5052655;28;20035;-51
2023/09/01 00:53:04;;;;;;;7.45;4.35;;;;;;;15.48;100.00;100245.03;5061475;28;20039;-52
2023/09/01 00:55:31;;;;;;;9.38;4.63;;;;;;;15.46;100.00;100247.94;5060001;28;20032;-49
2023/09/01 00:57:56;;;;;;;6.45;4.80;;;;;;;15.43;100.00;100240.34;5056052;28;20086;-50
2023/09/01 01:00:21;;;;;;;8.90;4.70;;;;;;;15.47;100.00;100235.38;5052565;28;20040;-51
2023/09/01 01:02:47;;;;;;;5.90;3.70;;;;;;;15.64;100.00;100231.00;5063227;28;20099;-48
2023/09/01 01:05:15;;;;;;;6.93;3.65;;;;;;;15.69;100.00;100231.16;5055949;28;20123;-52
2023/09/01 01:08:29;;;;;;;5.85;3.53;;;;;;;15.71;100.00;100228.25;5060816;28;20238;-50
2023/09/01 01:11:06;;;;;;;4.03;3.53;;;;;;;15.66;100.00;100230.75;5057039;28;20040;-54
2023/09/01 01:13:35;;;;;;;6.80;4.65;;;;;;;15.69;100.00;100233.00;5061440;28;20036;-50
2023/09/01 01:16:02;;;;;;;6.07;4.20;;;;;;;15.72;100.00;100234.41;5057644;28;20033;-48
2023/09/01 01:18:29;;;;;;;6.43;3.95;;;;;;;15.72;100.00;100226.38;5055139;28;20039;-53
2023/09/01 01:21:07;;;;;;;8.55;4.18;;;;;;;15.72;100.00;100229.91;5051021;28;20038;-51
2023/09/01 01:23:33;;;;;;;12.32;5.57;;;;;;;15.71;100.00;100230.91;5058682;28;20058;-51
2023/09/01 01:25:59;;;;;;;8.68;4.85;;;;;;;15.68;100.00;100226.00;5055330;28;20033;-51
2023/09/01 01:28:24;;;;;;;8.55;6.15;;;;;;;15.67;100.00;100227.88;5051482;28;20040;-51
2023/09/01 01:30:49;;;;;;;9.23;5.32;;;;;;;15.68;100.00;100231.34;5060535;28;20101;-51
2023/09/01 01:33:52;;;;;;;7.63;4.93;;;;;;;15.69;100.00;100233.84;5056441;28;20169;-51
2023/09/01 01:36:23;;;;;;;11.07;5.13;;;;;;;15.72;100.00;100229.91;5054576;28;20412;-55
2023/09/01 01:39:06;;;;;;;10.55;5.65;;;;;;;15.75;100.00;100217.91;5057389;28;20101;-53
2023/09/01 01:41:52;;;;;;;7.35;4.88;;;;;;;15.78;100.00;100225.47;5054886;28;20560;-49
2023/09/01 01:44:22;;;;;;;8.07;5.95;;;;;;;15.76;100.00;100212.31;5049277;28;20064;-51
2023/09/01 01:46:49;;;;;;;9.15;5.65;;;;;;;15.79;100.00;100211.88;5057229;28;20814;-53
2023/09/01 01:49:15;;;;;;;10.48;5.20;;;;;;;15.82;100.00;100213.25;5054917;28;20169;-50
2023/09/01 01:51:41;;;;;;;6.68;4.18;;;;;;;15.81;100.00;100214.31;5056311;28;20082;-55
2023/09/01 01:54:07;;;;;;;9.95;5.68;;;;;;;15.78;100.00;100215.59;5046937;28;20162;-49
2023/09/01 01:56:33;;;;;;;9.90;5.97;;;;;;;15.80;100.00;100212.66;5059931;28;20424;-55
2023/09/01 01:58:58;;;;;;;8.65;6.35;;;;;;;15.84;100.00;100211.16;5055691;28;20657;-47
2023/09/01 02:01:25;;;;;;;8.48;4.95;;;;;;;15.87;100.00;100208.84;5059363;28;20025;-50
2023/09/01 02:03:51;;;;;;;5.38;4.00;;;;;;;15.88;100.00;100209.69;5055511;28;20052;-52
2023/09/01 02:06:16;;;;;;;7.22;4.40;;;;;;;15.89;100.00;100209.41;5055712;28;20170;-54
2023/09/01 02:08:41;;;;;;;7.38;4.35;;;;;;;15.87;100.00;100210.69;5060016;28;20597;-48
2023/09/01 02:11:07;;;;;;;4.90;3.60;;;;;;;15.88;100.00;100210.47;5053964;28;20481;-50
2023/09/01 02:13:32;;;;;;;7.88;5.35;;;;;;;15.91;100.00;100203.84;5051480;28;20036;-51
2023/09/01 02:15:57;;;;;;;10.05;6.32;;;;;;;15.92;100.00;100208.94;5051488;28;20077;-49
2023/09/01 02:18:22;;;;;;;6.95;4.43;;;;;;;15.89;100.00;100190.72;5052852;28;20116;-48
2023/09/01 02:20:48;;;;;;;6.95;4.07;;;;;;;15.91;100.00;100191.28;5060798;28;20028;-49
2023/09/01 02:23:17;;;;;;;9.23;3.75;;;;;;;15.82;100.00;100187.34;5056166;28;20443;-49
2023/09/01 02:25:44;;;;;;;8.80;4.82;;;;;;;15.79;100.00;100187.00;5055096;28;20036;-48
2023/09/01 02:28:10;;;;;;;6.13;3.40;;;;;;;15.75;100.00;100189.34;5055331;28;20354;-48
2023/09/01 02:30:35;;;;;;;4.57;2.80;;;;;;;15.75;100.00;100192.00;5047488;28;20150;-52
2023/09/01 02:33:01;;;;;;;2.90;2.63;;;;;;;15.78;100.00;100193.41;5052536;28;20025;-50
2023/09/01 02:35:27;;;;;;;1.85;1.73;;;;;;;15.81;100.00;100192.94;5061009;28;20039;-50
2023/09/01 02:37:52;;;;;;;4.05;2.20;;;;;;;15.82;100.00;100184.66;5053507;28;20036;-53
2023/09/01 02:40:17;;;;;;;2.80;2.58;;;;;;;15.81;100.00;100191.06;5054138;28;20151;-51
2023/09/01 02:42:43;;;;;;;2.78;2.13;;;;;;;15.80;100.00;100191.28;5064662;28;20060;-47
2023/09/01 02:45:12;;;;;;;3.33;1.70;;;;;;;15.81;100.00;100203.63;5054490;28;20612;-50
2023/09/01 02:47:38;;;;;;;2.97;2.08;;;;;;;15.81;100.00;100212.44;5049707;28;20033;-51
2023/09/01 02:50:04;;;;;;;2.35;1.45;;;;;;;15.81;100.00;100212.44;5047128;28;20047;-48
2023/09/01 02:52:30;;;;;;;2.25;1.30;;;;;;;15.79;100.00;100211.88;5051998;28;20044;-49
2023/09/01 02:54:56;;;;;;;6.95;2.33;;;;;;;15.78;100.00;100201.41;5054279;28;20024;-47
2023/09/01 02:57:22;;;;;;;2.00;1.40;;;;;;;15.73;100.00;100202.09;5051297;28;20032;-52
2023/09/01 02:59:47;;;;;;;2.03;1.70;;;;;;;15.72;100.00;100207.66;5057390;28;20040;-47
2023/09/01 03:02:13;;;;;;;3.35;1.52;;;;;;;15.71;100.00;100228.25;5055760;28;20429;-53
2023/09/01 03:04:38;;;;;;;6.60;3.38;;;;;;;15.66;100.00;100222.75;5055539;28;20151;-51
2023/09/01 03:07:03;;;;;;;4.45;2.55;;;;;;;15.65;100.00;100221.94;5054379;28;20035;-49
2023/09/01 03:09:29;;;;;;;4.30;2.50;;;;;;;15.67;100.00;100211.03;5049910;28;20039;-50
2023/09/01 03:11:54;;;;;;;4.60;2.30;;;;;;;15.67;100.00;100214.50;5056777;28;20051;-48
2023/09/01 03:14:19;;;;;;;3.03;2.25;;;;;;;15.66;100.00;100212.88;5044462;28;20051;-51
2023/09/01 03:16:45;;;;;;;1.83;1.20;;;;;;;15.65;100.00;100219.25;5055372;28;20044;-46
2023/09/01 03:19:10;;;;;;;1.15;0.75;;;;;;;15.67;100.00;100222.53;5048722;28;20032;-48
2023/09/01 03:21:36;;;;;;;3.55;1.35;;;;;;;15.69;100.00;100225.81;5052653;28;20170;-50
2023/09/01 03:24:02;;;;;;;1.13;0.60;;;;;;;15.70;100.00;100229.31;5056778;28;20489;-46
2023/09/01 03:26:30;;;;;;;0.73;0.73;;;;;;;15.72;100.00;100229.06;5052848;28;20029;-46
2023/09/01 03:28:55;;;;;;;3.70;1.02;;;;;;;15.74;100.00;100214.41;5051236;28;20036;-47
2023/09/01 03:31:21;;;;;;;1.35;0.68;;;;;;;15.78;100.00;100215.59;5059323;28;20045;-47
2023/09/01 03:33:48;;;;;;;1.48;1.02;;;;;;;15.73;100.00;100212.78;5054071;28;20155;-50
2023/09/01 03:36:13;;;;;;;1.65;0.88;;;;;;;15.66;100.00;100210.19;5049471;28;20550;-48
2023/09/01 03:38:39;;;;;;;1.52;0.30;;;;;;;15.63;100.00;100207.19;5050763;28;20033;-48
2023/09/01 03:41:05;;;;;;;1.13;0.88;;;;;;;15.68;100.00;100209.97;5053486;28;20037;-47
2023/09/01 03:43:32;;;;;;;1.83;0.68;;;;;;;15.63;100.00;100215.19;5054115;28;20060;-49
2023/09/01 03:45:58;;;;;;;1.77;1.20;;;;;;;15.61;100.00;100210.06;5045623;28;20111;-51
2023/09/01 03:48:24;;;;;;;0.80;0.80;;;;;;;15.61;100.00;100202.06;5049823;28;20634;-52
2023/09/01 03:51:09;;;;;;;1.15;0.77;;;;;;;15.64;100.00;100208.78;5051949;28;20024;-50
2023/09/01 03:53:34;;;;;;;2.05;0.75;;;;;;;15.66;100.00;100212.88;5049841;28;20115;-50
2023/09/01 03:56:11;;;;;;;3.25;1.02;;;;;;;15.66;100.00;100207.53;5056854;28;20115;-50
2023/09/01 03:58:37;;;;;;;1.20;1.17;;;;;;;15.70;100.00;100208.72;5052045;28;20036;-49
2023/09/01 04:01:05;;;;;;;1.33;0.90;;;;;;;15.67;100.00;100203.00;5047848;28;20039;-46
2023/09/01 04:03:31;;;;;;;0.95;0.65;;;;;;;15.66;100.00;100202.16;5053328;28;20036;-51
2023/09/01 04:05:59;;;;;;;1.02;0.50;;;;;;;15.66;100.00;100196.03;5053570;28;20106;-50
2023/09/01 04:08:25;;;;;;;0.88;0.80;;;;;;;15.57;100.00;100192.06;5057993;28;20496;-50
2023/09/01 04:10:50;;;;;;;0.75;0.75;;;;;;;15.51;100.00;100193.78;5064195;28;20036;-50
2023/09/01 04:13:15;;;;;;;2.72;1.13;;;;;;;15.44;100.00;100193.09;5060037;28;20032;-51
2023/09/01 04:15:41;;;;;;;2.00;1.10;;;;;;;15.35;100.00;100195.28;5058497;28;20039;-48
2023/09/01 04:18:06;;;;;;;1.05;0.95;;;;;;;15.32;100.00;100195.75;5056984;28;20687;-51
2023/09/01 04:20:31;;;;;;;5.85;1.33;;;;;;;15.33;100.00;100204.56;5057593;28;20111;-50
2023/09/01 04:22:57;;;;;;;1.35;1.10;;;;;;;15.34;100.00;100217.69;5062568;28;20040;-51
2023/09/01 04:25:22;;;;;;;0.80;0.73;;;;;;;15.36;100.00;100215.63;5058118;28;20025;-48
2023/09/01 04:27:47;;;;;;;2.53;1.40;;;;;;;15.40;100.00;100214.09;5050518;28;20548;-47
2023/09/01 04:30:13;;;;;;;0.63;0.63;;;;;;;15.39;100.00;100212.50;5055710;28;20709;-51
2023/09/01 04:32:38;;;;;;;1.98;0.90;;;;;;;15.40;100.00;100213.28;5059329;28;20229;-50
2023/09/01 04:35:05;;;;;;;1.20;0.88;;;;;;;15.40;100.00;100214.09;5053393;28;20064;-51
2023/09/01 04:37:30;;;;;;;1.10;1.05;;;;;;;15.37;100.00;100219.91;5053286;28;20063;-51
2023/09/01 04:39:55;;;;;;;0.93;0.65;;;;;;;15.34;100.00;100225.72;5057219;28;20111;-49
2023/09/01 04:42:20;;;;;;;0.60;0.60;;;;;;;15.32;100.00;100227.78;5054708;28;20032;-48
2023/09/01 04:44:46;;;;;;;0.93;0.93;;;;;;;15.32;100.00;100218.97;5071764;28;20123;-49
2023/09/01 04:47:11;;;;;;;2.17;1.20;;;;;;;15.35;100.00;100213.97;5047316;28;20040;-48
2023/09/01 04:49:36;;;;;;;1.48;0.57;;;;;;;15.31;100.00;100202.13;5051666;28;20124;-49
2023/09/01 04:52:02;;;;;;;3.60;0.93;;;;;;;15.27;100.00;100208.97;5057008;28;20532;-49
2023/09/01 04:54:27;;;;;;;1.27;1.20;;;;;;;15.27;100.00;100222.31;5050811;28;20481;-47
2023/09/01 04:56:55;;;;;;;1.27;0.85;;;;;;;15.27;100.00;100225.00;5071288;28;20396;-53
2023/09/01 04:59:20;;;;;;;1.98;1.15;;;;;;;15.30;100.00;100229.88;5054417;28;20502;-49
2023/09/01 05:01:46;;;;;;;0.40;0.38;;;;;;;15.29;100.00;100225.59;5057566;28;20063;-50
2023/09/01 05:04:14;;;;;;;0.52;0.52;;;;;;;15.30;100.00;100219.19;5052146;28;20498;-51
2023/09/01 05:06:39;;;;;;;0.63;0.63;;;;;;;15.30;100.00;100227.19;5052009;28;20041;-51
2023/09/01 05:09:05;;;;;;;0.47;0.30;;;;;;;15.31;100.00;100231.53;5049410;28;20112;-50
2023/09/01 05:11:30;;;;;;;0.43;0.38;;;;;;;15.32;100.00;100227.00;5057310;28;20035;-52
2023/09/01 05:13:55;;;;;;;2.30;0.50;;;;;;;15.32;100.00;100225.13;5050024;28;20209;-48
2023/09/01 05:16:21;;;;;;;0.70;0.70;;;;;;;15.31;100.00;100226.19;5057000;28;20028;-48
2023/09/01 05:18:46;;;;;;;0.73;0.70;;;;;;;15.30;100.00;100219.19;5049937;28;20032;-47
2023/09/01 05:21:12;;;;;;;3.80;1.15;;;;;;;15.24;100.00;100220.13;5058816;28;20039;-50
2023/09/01 05:23:38;;;;;;;0.73;0.50;;;;;;;15.19;100.00;100220.78;5049296;28;20413;-48
2023/09/01 05:26:03;;;;;;;0.50;0.50;;;;;;;15.18;100.00;100218.34;5064218;28;20040;-48
2023/09/01 05:28:28;;;;;;;3.42;0.57;;;;;;;15.22;100.00;100231.00;5057906;28;20059;-47
2023/09/01 05:30:57;;;;;;;1.25;0.80;;;;;;;15.24;100.00;100228.13;5042320;28;20545;-50
2023/09/01 05:33:22;;;;;;;0.55;0.55;;;;;;;15.27;100.00;100230.34;5052139;28;20101;-48
2023/09/01 05:35:48;;;;;;;0.47;0.38;;;;;;;15.31;100.00;100226.19;5056390;28;20119;-49
2023/09/01 05:38:13;;;;;;;0.77;0.55;;;;;;;15.36;100.00;100233.47;5052643;28;20041;-55
2023/09/01 05:40:39;;;;;;;0.80;0.75;;;;;;;15.38;100.00;100234.88;5048852;28;20456;-49
2023/09/01 05:43:04;;;;;;;1.35;0.73;;;;;;;15.43;100.00;100234.19;5054259;28;20051;-50
2023/09/01 05:45:29;;;;;;;0.55;0.50;;;;;;;15.45;100.00;100227.59;5053931;28;20032;-47
2023/09/01 05:47:56;;;;;;;0.20;0.20;;;;;;;15.47;100.00;100222.84;5048472;28;20064;-47
2023/09/01 05:50:21;;;;;;;0.50;0.50;;;;;;;15.56;100.00;100223.31;5059012;28;20020;-50
2023/09/01 05:52:47;;;;;;;1.75;0.10;;;;;;;15.55;100.00;100218.22;5055076;28;20020;-53
2023/09/01 05:55:13;;;;;;;2.15;0.50;;;;;;;15.46;100.00;100223.88;5052237;28;20037;-49
2023/09/01 05:57:39;;;;;;;1.27;0.63;;;;;;;15.57;100.00;100224.94;5053540;28;20376;-49
2023/09/01 06:00:05;;;;;;;0.82;0.47;;;;;;;15.59;100.00;100233.56;5053660;28;20072;-49
2023/09/01 06:02:30;;;;;;;4.78;0.20;;;;;;;15.63;100.00;100239.25;5050524;28;20029;-49
2023/09/01 06:04:56;;;;;;;0.85;0.73;;;;;;;15.65;100.00;100248.66;5052676;28;20404;-50
2023/09/01 06:07:21;;;;;;;0.30;0.30;;;;;;;15.71;100.00;100257.66;5050385;28;20036;-50
2023/09/01 06:09:46;;;;;;;0.88;0.50;;;;;;;15.74;100.00;100257.19;5051190;28;20031;-48
2023/09/01 06:12:14;;;;;;;0.63;0.63;;;;;;;15.77;100.00;100248.69;5059674;28;20082;-50
2023/09/01 06:14:39;;;;;;;0.82;0.70;;;;;;;15.84;100.00;100256.63;5055123;28;20064;-47
2023/09/01 06:17:05;;;;;;;0.52;0.35;;;;;;;15.83;100.00;100250.47;5048800;28;20111;-50
2023/09/01 06:19:30;;;;;;;1.55;0.50;;;;;;;15.85;100.00;100253.72;5047340;28;20468;-49
2023/09/01 06:21:55;;;;;;;1.90;0.43;;;;;;;15.81;100.00;100257.91;5054255;28;20367;-51
2023/09/01 06:24:21;;;;;;;0.60;0.60;;;;;;;15.81;100.00;100254.41;5057203;28;20085;-47
2023/09/01 06:26:46;;;;;;;0.70;0.70;;;;;;;15.85;100.00;100258.22;5057500;28;20067;-48
2023/09/01 06:29:12;;;;;;;0.22;0.22;;;;;;;15.89;100.00;100270.09;5048553;28;20389;-48
2023/09/01 06:31:37;;;;;;;3.17;0.55;;;;;;;15.89;100.00;100270.91;5056588;28;20083;-49
2023/09/01 06:34:03;;;;;;;0.65;0.22;;;;;;;15.95;100.00;100273.72;5056358;28;20508;-50
2023/09/01 06:36:28;;;;;;;1.08;0.82;;;;;;;16.02;100.00;100277.09;5054108;28;20075;-46
2023/09/01 06:38:53;;;;;;;4.03;1.08;;;;;;;16.03;100.00;100271.53;5052447;28;20032;-48
2023/09/01 06:41:19;;;;;;;0.10;0.10;;;;;;;16.10;100.00;100271.41;5069570;28;20036;-47
2023/09/01 06:43:44;;;;;;;2.05;0.95;;;;;;;16.14;100.00;100270.72;5045767;28;20115;-49
2023/09/01 06:46:09;;;;;;;1.98;0.55;;;;;;;16.16;100.00;100286.53;5059170;28;20101;-49
2023/09/01 06:48:35;;;;;;;1.05;0.60;;;;;;;16.17;100.00;100282.81;5047622;28;20144;-50
2023/09/01 06:51:00;;;;;;;1.23;0.80;;;;;;;16.12;100.00;100283.50;5049332;28;20052;-52
2023/09/01 06:53:26;;;;;;;0.50;0.50;;;;;;;16.14;100.00;100275.25;5055355;28;20484;-51
2023/09/01 06:55:52;;;;;;;1.05;0.52;;;;;;;16.12;100.00;100269.31;5040161;28;20091;-49
2023/09/01 06:58:17;;;;;;;0.77;0.77;;;;;;;16.11;100.00;100273.03;5051334;28;20058;-48
2023/09/01 07:00:42;;;;;;;1.13;0.65;;;;;;;16.11;100.00;100271.19;5051918;28;20036;-52
2023/09/01 07:03:08;;;;;;;2.35;0.40;;;;;;;16.15;100.00;100266.16;5047597;28;20165;-50
2023/09/01 07:05:34;;;;;;;4.35;0.75;;;;;;;16.18;100.00;100268.38;5048726;28;20085;-51
2023/09/01 07:07:59;;;;;;;1.08;1.02;;;;;;;16.21;100.00;100259.06;5049231;28;20415;-50
2023/09/01 07:10:24;;;;;;;0.57;0.57;;;;;;;16.22;100.00;100274.88;5052141;28;20318;-52
2023/09/01 07:12:50;;;;;;;0.70;0.70;;;;;;;16.26;100.00;100270.72;5046725;28;20210;-52
2023/09/01 07:15:15;;;;;;;0.38;0.38;;;;;;;16.37;100.00;100277.09;5051432;28;20121;-50
2023/09/01 07:17:40;;;;;;;1.35;1.00;;;;;;;16.44;100.00;100285.00;5049430;28;20079;-50
2023/09/01 07:20:07;;;;;;;1.15;0.60;;;;;;;16.48;100.00;100286.16;5052571;28;20024;-47
2023/09/01 07:22:32;;;;;;;0.80;0.80;;;;;;;16.55;100.00;100285.00;5046281;28;20046;-49
2023/09/01 07:24:57;;;;;;;0.50;0.13;;;;;;;16.57;100.00;100285.56;5050131;28;20058;-49
2023/09/01 07:27:23;;;;;;;0.55;0.30;;;;;;;16.63;100.00;100288.34;5052699;28;20028;-47
2023/09/01 07:29:48;;;;;;;1.55;0.88;;;;;;;16.60;100.00;100284.28;5060027;28;20491;-49
2023/09/01 07:32:17;;;;;;;0.93;0.40;;;;;;;16.58;100.00;100292.53;5050114;28;20541;-51
2023/09/01 07:34:43;;;;;;;0.57;0.57;;;;;;;16.66;100.00;100304.75;5056351;28;20524;-51
2023/09/01 07:37:08;;;;;;;0.40;0.40;;;;;;;16.74;100.00;100311.59;5053309;28;20048;-49
2023/09/01 07:39:35;;;;;;;0.40;0.40;;;;;;;16.85;100.00;100302.75;5056410;28;20043;-52
2023/09/01 07:42:01;;;;;;;0.82;0.82;;;;;;;16.95;100.00;100313.69;5057767;28;20515;-53
2023/09/01 07:44:26;;;;;;;0.75;0.75;;;;;;;17.10;100.00;100299.78;5060460;28;20028;-50
2023/09/01 07:46:52;;;;;;;0.85;0.55;;;;;;;17.19;100.00;100297.53;5060191;28;20039;-52
2023/09/01 07:49:17;;;;;;;0.77;0.60;;;;;;;17.33;100.00;100304.22;5051908;28;20142;-50
2023/09/01 07:51:43;;;;;;;0.85;0.55;;;;;;;17.37;100.00;100301.88;5055457;28;20263;-51
2023/09/01 07:54:08;;;;;;;1.15;0.63;;;;;;;17.56;100.00;100303.31;5054976;28;20039;-51
2023/09/01 07:56:34;;;;;;;1.08;0.55;;;;;;;17.70;100.00;100306.47;5055966;28;20028;-48
2023/09/01 07:58:59;;;;;;;0.45;0.45;;;;;;;17.79;100.00;100306.91;5061118;28;20041;-49
2023/09/01 08:01:25;;;;;;;0.80;0.80;;;;;;;17.88;100.00;100308.16;5057134;28;20536;-52
2023/09/01 08:03:50;;;;;;;1.30;0.80;;;;;;;18.03;100.00;100313.75;5046068;28;20043;-50
2023/09/01 08:06:16;;;;;;;0.80;0.80;;;;;;;18.36;100.00;100314.00;5056927;28;20454;-47
2023/09/01 08:08:41;;;;;;;0.30;0.30;;;;;;;18.59;100.00;100313.78;5061875;28;20024;-49
2023/09/01 08:11:07;;;;;;;1.27;0.47;;;;;;;18.86;100.00;100313.88;5055660;28;20024;-49
2023/09/01 08:13:33;;;;;;;0.73;0.30;;;;;;;19.21;100.00;100315.38;5048902;28;20053;-51
2023/09/01 08:15:58;;;;;;;0.30;0.30;;;;;;;19.24;100.00;100304.13;5058724;28;20120;-48
2023/09/01 08:18:23;;;;;;;0.40;0.40;;;;;;;19.29;100.00;100306.84;5056185;28;20128;-53
2023/09/01 08:20:49;;;;;;;0.55;0.10;;;;;;;19.31;100.00;100306.59;5055135;28;20124;-53
2023/09/01 08:23:14;;;;;;;0.60;0.40;;;;;;;19.16;100.00;100289.25;5049097;28;20412;-49
2023/09/01 08:25:39;;;;;;;0.20;0.00;;;;;;;19.39;100.00;100298.91;5052310;28;20493;-51
2023/09/01 08:28:06;;;;;;;0.00;0.00;;;;;;;19.63;100.00;100306.66;5051740;28;20091;-49
2023/09/01 08:30:31;;;;;;;0.00;0.00;;;;;;;19.74;100.00;100308.38;5056029;28;20226;-51
2023/09/01 08:32:56;;;;;;;0.15;0.15;;;;;;;19.76;100.00;100306.25;5059888;28;20207;-51
2023/09/01 08:35:22;;;;;;;0.15;0.00;;;;;;;19.80;100.00;100314.63;5054001;28;20125;-50
2023/09/01 08:37:47;;;;;;;0.00;0.00;;;;;;;19.77;100.00;100313.28;5051055;28;20844;-50
2023/09/01 08:40:13;;;;;;;0.00;0.00;;;;;;;19.79;100.00;100311.13;5050360;28;20020;-48
2023/09/01 08:42:45;;;;;;;0.55;0.00;;;;;;;19.79;100.00;100326.44;5057019;28;20496;-51
2023/09/01 08:45:10;;;;;;;0.20;0.00;;;;;;;19.79;100.00;100321.88;5059226;28;20132;-49
2023/09/01 08:47:42;;;;;;;0.10;0.03;;;;;;;19.74;100.00;100319.16;5056656;28;20040;-52
2023/09/01 08:50:08;;;;;;;1.10;0.50;;;;;;;19.76;100.00;100322.41;5054054;28;20082;-50
2023/09/01 08:52:35;;;;;;;1.05;0.20;;;;;;;19.89;100.00;100323.84;5055007;28;20041;-52
2023/09/01 08:55:00;;;;;;;0.10;0.10;;;;;;;20.01;100.00;100319.13;5052482;28;20021;-50
2023/09/01 08:57:26;;;;;;;0.40;0.40;;;;;;;20.09;100.00;100325.09;5052735;28;20039;-51
2023/09/01 08:59:51;;;;;;;0.40;0.40;;;;;;;20.19;100.00;100323.28;5052529;28;20025;-50
2023/09/01 09:02:16;;;;;;;0.75;0.38;;;;;;;20.23;100.00;100320.88;5057062;28;20063;-53
2023/09/01 09:04:42;;;;;;;0.40;0.22;;;;;;;20.14;100.00;100317.88;5056932;28;21131;-50
2023/09/01 09:07:16;;;;;;;0.68;0.68;;;;;;;20.18;100.00;100323.53;5045510;28;20024;-51
2023/09/01 09:09:56;;;;;;;1.50;0.38;;;;;;;20.23;100.00;100321.69;5052267;28;21143;-52
2023/09/01 09:12:36;;;;;;;0.60;0.52;;;;;;;20.18;100.00;100328.91;5050261;28;20025;-50
2023/09/01 09:15:01;;;;;;;0.55;0.50;;;;;;;20.24;100.00;100325.22;5047374;28;20439;-54
2023/09/01 09:17:44;;;;;;;1.02;0.22;;;;;;;20.25;100.00;100319.53;5054643;28;20125;-53
2023/09/01 09:20:14;;;;;;;0.52;0.52;;;;;;;19.95;100.00;100336.25;5050091;28;20090;-55
2023/09/01 09:22:57;;;;;;;0.57;0.55;;;;;;;20.54;100.00;100331.84;5047791;28;20036;-51
2023/09/01 09:25:33;;;;;;;1.10;0.30;;;;;;;20.68;100.00;100316.88;5047087;28;20039;-54
2023/09/01 09:28:16;;;;;;;0.80;0.40;;;;;;;20.65;100.00;100322.75;5051776;28;20028;-54
2023/09/01 09:30:49;;;;;;;0.75;0.75;;;;;;;20.69;100.00;100313.91;5046232;28;20052;-55
2023/09/01 09:33:15;;;;;;;0.30;0.30;;;;;;;20.85;100.00;100305.88;5057913;28;20032;-51
2023/09/01 09:35:50;;;;;;;0.80;0.47;;;;;;;21.08;100.00;100310.81;5051288;28;20029;-53
2023/09/01 09:38:16;;;;;;;0.50;0.50;;;;;;;21.18;100.00;100303.84;5052899;28;20040;-52
2023/09/01 09:40:42;;;;;;;0.95;0.20;;;;;;;21.16;100.00;100311.38;5053145;28;20043;-53
2023/09/01 09:43:09;;;;;;;0.25;0.10;;;;;;;21.20;100.00;100318.69;5045066;28;20052;-52
2023/09/01 09:45:34;;;;;;;0.05;0.05;;;;;;;21.43;100.00;100316.63;5054206;28;20123;-55
2023/09/01 09:48:02;;;;;;;0.20;0.10;;;;;;;21.68;100.00;100323.91;5052473;28;20030;-53
2023/09/01 09:50:28;;;;;;;0.10;0.00;;;;;;;21.47;100.00;100310.41;5053416;28;20082;-56
2023/09/01 09:53:05;;;;;;;0.10;0.00;;;;;;;21.60;100.00;100308.28;5054638;28;20040;-53
2023/09/01 09:55:32;;;;;;;0.10;0.05;;;;;;;21.74;100.00;100312.06;5050940;28;20496;-52
2023/09/01 09:58:07;;;;;;;0.00;0.00;;;;;;;21.80;100.00;100307.47;5055511;28;20112;-54
2023/09/01 10:00:40;;;;;;;1.08;0.00;;;;;;;21.80;100.00;100302.88;5051616;28;20431;-54
2023/09/01 10:03:07;;;;;;;0.00;0.00;;;;;;;21.74;100.00;100304.78;5052699;28;20032;-54
2023/09/01 10:05:33;;;;;;;0.10;0.08;;;;;;;21.74;100.00;100317.47;5055249;28;20044;-53
2023/09/01 10:08:04;;;;;;;0.30;0.13;;;;;;;21.35;100.00;100320.63;5054274;28;20650;-58
2023/09/01 10:10:34;;;;;;;0.32;0.10;;;;;;;21.33;100.00;100312.78;5056739;28;20174;-55
2023/09/01 10:13:06;;;;;;;0.30;0.20;;;;;;;21.02;100.00;100324.56;5059493;28;20450;-56
2023/09/01 10:15:32;;;;;;;1.08;0.52;;;;;;;20.94;100.00;100320.50;5052795;28;20489;-53
2023/09/01 10:18:01;;;;;;;0.30;0.17;;;;;;;20.76;100.00;100323.66;5051693;28;20107;-56
2023/09/01 10:20:28;;;;;;;0.25;0.10;;;;;;;20.72;100.00;100349.47;5055620;28;20032;-56
2023/09/01 10:22:54;;;;;;;1.00;0.38;;;;;;;20.65;100.00;100349.69;5051862;28;20119;-53
2023/09/01 10:25:20;;;;;;;0.68;0.10;;;;;;;20.85;100.00;100359.78;5052603;28;20036;-51
2023/09/01 10:28:10;;;;;;;2.28;0.38;;;;;;;20.94;100.00;100352.84;5049404;28;20507;-53
2023/09/01 10:30:38;;;;;;;0.25;0.20;;;;;;;20.84;100.00;100347.41;5056254;28;20048;-55
2023/09/01 10:33:07;;;;;;;1.05;0.20;;;;;;;20.81;100.00;100340.66;5057409;28;20028;-52
2023/09/01 10:35:44;;;;;;;0.30;0.15;;;;;;;21.10;100.00;100330.25;5055833;28;20436;-53
2023/09/01 10:38:11;;;;;;;0.20;0.00;;;;;;;21.39;100.00;100337.09;5056925;28;20493;-54
2023/09/01 10:40:53;;;;;;;0.17;0.17;;;;;;;21.62;100.00;100327.69;5058673;28;20059;-53
2023/09/01 10:43:33;;;;;;;0.10;0.10;;;;;;;21.55;100.00;100334.16;5051635;28;20061;-54
2023/09/01 10:46:14;;;;;;;0.30;0.30;;;;;;;21.31;100.00;100327.59;5055639;28;20115;-56
2023/09/01 10:48:52;;;;;;;0.22;0.20;;;;;;;21.15;100.00;100334.03;5052663;28;20028;-53
2023/09/01 10:51:24;;;;;;;0.93;0.88;;;;;;;21.30;100.00;100339.47;5050200;28;20029;-54
2023/09/01 10:54:00;;;;;;;0.55;0.20;;;;;;;21.30;100.00;100342.19;5051606;28;20032;-53
2023/09/01 10:56:27;;;;;;;0.50;0.22;;;;;;;21.18;100.00;100342.41;5058537;28;20410;-55
2023/09/01 10:58:54;;;;;;;1.10;0.30;;;;;;;21.05;100.00;100341.00;5050722;28;20043;-52
2023/09/01 11:01:31;;;;;;;0.50;0.30;;;;;;;20.92;100.00;100346.88;5053166;28;20032;-53
2023/09/01 11:04:21;;;;;;;1.05;0.17;;;;;;;20.84;100.00;100352.78;5052855;28;20070;-56
2023/09/01 11:06:55;;;;;;;2.13;0.17;;;;;;;20.71;100.00;100351.38;5046194;28;20080;-53
2023/09/01 11:09:21;;;;;;;0.35;0.35;;;;;;;20.64;100.00;100356.97;5041939;28;20038;-53
2023/09/01 11:11:50;;;;;;;0.50;0.20;;;;;;;20.69;100.00;100357.00;5051800;28;20032;-54
2023/09/01 11:14:20;;;;;;;0.65;0.32;;;;;;;20.72;100.00;100363.75;5057793;28;20035;-56
2023/09/01 11:16:45;;;;;;;0.77;0.40;;;;;;;20.66;100.00;100357.53;5056513;28;20035;-54
2023/09/01 11:19:10;;;;;;;0.90;0.35;;;;;;;20.76;100.00;100356.78;5055846;28;20509;-52